Blue Merlin — DLQB — position and weather

sailwx.info

Track history (hours):
 
Tides and Currents Weather Stations Pressure Air Temp Water Temp Dewpoint Dewpoint Depression Visibility Wind Speed Wind Dir Waves Ship Positions

Blue Merlin

Last reported at 2017-Aug-25 14:35 UTC. Time now 2017-Sep-20 22:12 UTC.
Position N 47°30' W 002°29'.
Warning: this ship's position is 26 days out of date.

Length 17 m.

Type: Pleasure craft. MMSI: 211499550.

Date/timePositionNaut miles runAvg speedWind from/ knotsBaromVisibWave heightAir tempDewpointWater temp
2017-Aug-25 14:35N 47°30' W 002°29'1 4.7
2017-Aug-25 14:17N 47°30' W 002°31'2 2.0
2017-Aug-25 13:12N 47°29' W 002°34'1 6.4
2017-Aug-25 12:58N 47°29' W 002°35'3 6.4
2017-Aug-25 12:30N 47°28' W 002°40'3 6.2
2017-Aug-25 12:00N 47°28' W 002°44'3 6.3
2017-Aug-25 11:29N 47°28' W 002°49'3 6.1
2017-Aug-25 10:56N 47°28' W 002°54'3 5.8
2017-Aug-25 10:24N 47°29' W 002°59'2 6.3
2017-Aug-25 10:00N 47°29' W 003°02'3 0.1
2017-Aug-24 15:40N 47°29' W 003°06'0 0.0
2017-Aug-23 09:42N 47°29' W 003°06'1 5.5
2017-Aug-23 09:29N 47°30' W 003°05'3 7.0
2017-Aug-23 09:00N 47°33' W 003°01'3 0.1
2017-Aug-21 15:16N 47°35' W 003°02'1 5.0
2017-Aug-21 14:59N 47°34' W 003°01'5 0.2
2017-Aug-20 10:38N 47°30' W 003°07'0 0.9
2017-Aug-20 10:30N 47°30' W 003°07'1 0.0
2017-Aug-19 08:24N 47°29' W 003°06'1 1.6
2017-Aug-19 08:00N 47°30' W 003°05'3 6.4
2017-Aug-19 07:30N 47°32' W 003°02'3 5.8
2017-Aug-19 07:00N 47°35' W 003°01'0 0.0
2017-Aug-17 08:24N 47°35' W 003°01'2 5.0
2017-Aug-17 08:00N 47°33' W 003°00'2 4.9
2017-Aug-17 07:30N 47°31' W 002°59'  
Track history (hours):
 
Tides and Currents Weather Stations Pressure Air Temp Water Temp Dewpoint Dewpoint Depression Visibility Wind Speed Wind Dir Waves Ship Positions

Blue Merlin

Last reported at 2017-Aug-25 14:35 UTC. Time now 2017-Sep-20 22:12 UTC.
Position N 47°30' W 002°29'.
Warning: this ship's position is 26 days out of date.

Length 17 m.

Type: Pleasure craft. MMSI: 211499550.

Date/timePositionNaut miles runAvg speedWind from/ knotsBaromVisibWave heightAir tempDewpointWater temp
2017-Aug-25 14:35N 47°30' W 002°29'1 4.7
2017-Aug-25 14:17N 47°30' W 002°31'2 2.0
2017-Aug-25 13:12N 47°29' W 002°34'1 6.4
2017-Aug-25 12:58N 47°29' W 002°35'3 6.4
2017-Aug-25 12:30N 47°28' W 002°40'3 6.2
2017-Aug-25 12:00N 47°28' W 002°44'3 6.3
2017-Aug-25 11:29N 47°28' W 002°49'3 6.1
2017-Aug-25 10:56N 47°28' W 002°54'3 5.8
2017-Aug-25 10:24N 47°29' W 002°59'2 6.3
2017-Aug-25 10:00N 47°29' W 003°02'3 0.1
2017-Aug-24 15:40N 47°29' W 003°06'0 0.0
2017-Aug-23 09:42N 47°29' W 003°06'1 5.5
2017-Aug-23 09:29N 47°30' W 003°05'3 7.0
2017-Aug-23 09:00N 47°33' W 003°01'3 0.1
2017-Aug-21 15:16N 47°35' W 003°02'1 5.0
2017-Aug-21 14:59N 47°34' W 003°01'5 0.2
2017-Aug-20 10:38N 47°30' W 003°07'0 0.9
2017-Aug-20 10:30N 47°30' W 003°07'1 0.0
2017-Aug-19 08:24N 47°29' W 003°06'1 1.6
2017-Aug-19 08:00N 47°30' W 003°05'3 6.4
2017-Aug-19 07:30N 47°32' W 003°02'3 5.8
2017-Aug-19 07:00N 47°35' W 003°01'0 0.0
2017-Aug-17 08:24N 47°35' W 003°01'2 5.0
2017-Aug-17 08:00N 47°33' W 003°00'2 4.9
2017-Aug-17 07:30N 47°31' W 002°59'  

Dump ship's entire track history